»·PEaware :: FDX1297 KSDF-KMEM

FDX1297 :: KSDF-KMEM

FLIGHT INFORMATION

Flight Status: Arrived
Operator:
Federal Express
More flights by this operator :: More flights under this callsign
Pilot: Jamyson D. (13674)
Aircraft: BOEING 757-200
(B752)
More flights by this aircraft type
Origin: KSDF Louisville Intl-Standiford
United States
Destination: KMEM Memphis Intl
United States
More flights between these airports :: More routes between these airports
Route: CRRGO2 CRRGO OSINE BWG BLUZZ1
File this flight plan on PilotEdge
Remarks:
Altitude:
(Current/Filed)
34,000ft
Speed:
(Current/Filed)
439kts
Departed: 16-Nov-17 04:44 PM
Arrived: 16-Nov-17 05:37 PM
Distance/Time
Traveled:
277nm/0:53
Distance/Time
To Go:
Arrived

Flight Plot

Page will automatically refresh every two minutes.

Flight plan parsing failed; only flown route is shown


Map Options




Map Legend


Flown Route
Filed Route
Departure Airport
Arrival Airport
Navaid (VOR, NDB)
Fix

Horizontal Profiles

Position Reports

Time Latitude Longitude Heading Altitude Ground
Speed
16-Nov-17 16:18 38.175596 -85.748120 0 485ft 0kts
16-Nov-17 16:19 38.175596 -85.748120 255 484ft 0kts
16-Nov-17 16:20 38.175596 -85.748120 255 484ft 0kts
16-Nov-17 16:21 38.175596 -85.748120 255 484ft 0kts
16-Nov-17 16:22 38.175596 -85.748120 255 484ft 0kts
16-Nov-17 16:23 38.175596 -85.748120 255 484ft 0kts
16-Nov-17 16:24 38.175596 -85.748120 255 484ft 0kts
16-Nov-17 16:25 38.175596 -85.748120 255 484ft 0kts
16-Nov-17 16:26 38.175596 -85.748120 255 484ft 0kts
16-Nov-17 16:27 38.175596 -85.748120 255 484ft 0kts
16-Nov-17 16:28 38.175596 -85.748120 255 484ft 0kts
16-Nov-17 16:29 38.175596 -85.748120 255 484ft 0kts
16-Nov-17 16:30 38.175596 -85.748120 255 484ft 0kts
16-Nov-17 16:31 38.175596 -85.748120 255 484ft 0kts
16-Nov-17 16:32 38.175596 -85.748120 255 484ft 0kts
16-Nov-17 16:33 38.175596 -85.748120 255 484ft 0kts
16-Nov-17 16:34 38.175596 -85.748120 255 484ft 0kts
16-Nov-17 16:35 38.175596 -85.748120 255 484ft 0kts
16-Nov-17 16:36 38.175596 -85.748120 255 484ft 0kts
16-Nov-17 16:37 38.175596 -85.748120 255 484ft 0kts
16-Nov-17 16:38 38.175796 -85.747561 225 484ft 2kts
16-Nov-17 16:39 38.176332 -85.747294 175 484ft 2kts
16-Nov-17 16:40 38.176577 -85.747351 187 484ft 0kts
16-Nov-17 16:41 38.176577 -85.747351 187 484ft 0kts
16-Nov-17 16:42 38.176289 -85.747397 184 484ft 6kts
16-Nov-17 16:43 38.174382 -85.746666 163 483ft 8kts
16-Nov-17 16:44 38.171583 -85.745721 164 481ft 12kts
16-Nov-17 16:45 38.166439 -85.744016 165 471ft 25kts
16-Nov-17 16:46 38.159710 -85.741785 165 461ft 23kts
16-Nov-17 16:47 38.159094 -85.739577 346 461ft 7kts
16-Nov-17 16:48 38.159133 -85.739589 346 461ft 0kts
16-Nov-17 16:49 38.178884 -85.746061 346 735ft 196kts
16-Nov-17 16:50 38.236853 -85.766163 340 1750ft 226kts
16-Nov-17 16:51 38.272819 -85.828939 250 5452ft 254kts
16-Nov-17 16:52 38.217983 -85.886308 232 8620ft 268kts
16-Nov-17 16:53 38.160916 -85.955344 224 10548ft 326kts
16-Nov-17 16:54 38.086844 -86.035908 224 13016ft 361kts
16-Nov-17 16:55 38.009190 -86.119530 224 15746ft 375kts
16-Nov-17 16:56 37.928565 -86.206006 224 18146ft 389kts
16-Nov-17 16:57 37.822706 -86.249988 196 20535ft 422kts
16-Nov-17 16:58 37.705495 -86.278281 196 22658ft 437kts
16-Nov-17 16:59 37.584342 -86.307295 196 24535ft 452kts
16-Nov-17 17:00 37.459133 -86.334124 195 26242ft 466kts
16-Nov-17 17:01 37.330033 -86.360836 196 27743ft 478kts
16-Nov-17 17:02 37.198100 -86.388101 196 29071ft 489kts
16-Nov-17 17:03 37.062806 -86.415977 195 30319ft 499kts
16-Nov-17 17:04 36.938040 -86.477864 226 31498ft 476kts
16-Nov-17 17:05 36.861465 -86.604040 245 32888ft 454kts
16-Nov-17 17:06 36.799250 -86.738881 247 34069ft 451kts
16-Nov-17 17:07 36.738804 -86.874235 247 34264ft 448kts
16-Nov-17 17:08 36.678257 -87.010107 248 34247ft 446kts
16-Nov-17 17:09 36.628086 -87.122403 249 34243ft 447kts
16-Nov-17 17:10 36.557406 -87.280052 249 34240ft 448kts
16-Nov-17 17:11 36.507068 -87.391847 249 34235ft 448kts
16-Nov-17 17:12 36.435931 -87.549185 249 34232ft 447kts
16-Nov-17 17:13 36.385431 -87.660432 248 34236ft 448kts
16-Nov-17 17:14 36.314084 -87.816958 248 34243ft 448kts
16-Nov-17 17:15 36.262871 -87.928862 248 34244ft 448kts
16-Nov-17 17:16 36.201433 -88.062610 248 34252ft 447kts
16-Nov-17 17:17 36.131556 -88.213894 249 34257ft 416kts
16-Nov-17 17:18 36.083395 -88.318095 248 33391ft 422kts
16-Nov-17 17:19 36.025048 -88.443714 248 31452ft 424kts
16-Nov-17 17:20 35.966013 -88.570273 247 29457ft 424kts
16-Nov-17 17:21 35.909596 -88.690724 246 27552ft 408kts
16-Nov-17 17:22 35.853227 -88.808329 239 25660ft 401kts
16-Nov-17 17:23 35.763592 -88.892482 221 23651ft 405kts
16-Nov-17 17:24 35.676230 -88.974226 224 21561ft 386kts
16-Nov-17 17:25 35.594172 -89.055491 224 18555ft 368kts
16-Nov-17 17:26 35.518040 -89.131226 223 15557ft 344kts
16-Nov-17 17:27 35.445653 -89.203129 222 12553ft 329kts
16-Nov-17 17:28 35.376379 -89.271748 222 9887ft 301kts
16-Nov-17 17:29 35.314714 -89.332705 221 7970ft 270kts
16-Nov-17 17:30 35.255371 -89.391291 220 6490ft 278kts
16-Nov-17 17:31 35.196791 -89.448969 220 5477ft 265kts
16-Nov-17 17:32 35.151137 -89.516283 238 4488ft 257kts
16-Nov-17 17:33 35.112766 -89.588892 238 3489ft 252kts
16-Nov-17 17:34 35.076661 -89.658239 237 2841ft 230kts
16-Nov-17 17:35 35.044039 -89.721576 238 2180ft 217kts
16-Nov-17 17:36 35.012568 -89.783633 238 1973ft 216kts
16-Nov-17 17:37 34.979259 -89.844447 215 1984ft 216kts
16-Nov-17 17:38 34.933126 -89.887870 245 1636ft 207kts
16-Nov-17 17:39 34.942507 -89.937130 326 1594ft 139kts
16-Nov-17 17:40 34.975206 -89.962116 324 950ft 136kts
16-Nov-17 17:41 35.012454 -89.972460 356 613ft 139kts
16-Nov-17 17:42 35.038637 -89.972673 0 349ft 17kts

Navigation Log

Ident Type
Flight plan parsing failed, navigation log unavailable